createdAt,value
2018-07-24T00:01:57.715Z,91.80
2018-07-24T00:04:26.101Z,92.00
2018-07-24T00:06:54.756Z,91.90
2018-07-24T00:09:24.037Z,91.90
2018-07-24T00:11:52.472Z,91.90
2018-07-24T00:14:21.335Z,91.90
2018-07-24T00:16:52.153Z,91.90
2018-07-24T00:19:20.689Z,91.80
2018-07-24T00:21:49.048Z,91.90
2018-07-24T00:24:17.514Z,91.80
2018-07-24T00:26:45.916Z,91.80
2018-07-24T00:31:42.531Z,92.00
2018-07-24T00:34:10.893Z,92.00
2018-07-24T00:49:39.904Z,92.10
2018-07-24T00:52:08.539Z,92.90
2018-07-24T00:54:37.024Z,92.90
2018-07-24T00:57:05.799Z,92.90
2018-07-24T00:59:34.378Z,92.90
2018-07-24T01:15:02.948Z,92.90
2018-07-24T01:17:31.336Z,92.90
2018-07-24T01:19:59.757Z,92.70
2018-07-24T01:22:28.796Z,92.70
2018-07-24T01:25:01.718Z,92.80
2018-07-24T01:27:30.160Z,92.70
2018-07-24T01:29:58.589Z,92.70
2018-07-24T01:32:27.104Z,92.70
2018-07-24T01:34:55.850Z,92.70
2018-07-24T01:37:24.369Z,92.80
2018-07-24T01:40:00.863Z,93.00
2018-07-24T01:45:06.753Z,93.10
2018-07-24T01:47:35.169Z,93.00
2018-07-24T01:50:03.784Z,92.80
2018-07-24T01:52:33.241Z,92.70
2018-07-24T01:55:02.742Z,92.90
2018-07-24T01:57:31.646Z,92.90
2018-07-24T02:00:06.424Z,92.90
2018-07-24T02:02:34.831Z,92.80
2018-07-24T02:05:03.181Z,92.90
2018-07-24T02:07:31.590Z,93.10
2018-07-24T02:10:00.016Z,93.10
2018-07-24T02:12:31.514Z,93.20
2018-07-24T02:15:00.007Z,93.10
2018-07-24T02:17:28.347Z,93.40
2018-07-24T02:19:56.830Z,93.50
2018-07-24T02:22:41.672Z,93.50
2018-07-24T02:25:10.078Z,93.80
2018-07-24T02:30:19.667Z,93.60
2018-07-24T02:32:48.720Z,93.50
2018-07-24T02:35:17.205Z,93.30
2018-07-24T02:37:45.785Z,93.20
2018-07-24T02:40:14.256Z,93.10
2018-07-24T02:42:43.496Z,92.90
2018-07-24T02:45:11.947Z,92.90
2018-07-24T02:47:43.621Z,93.00
2018-07-24T02:52:40.788Z,93.00
2018-07-24T02:55:09.838Z,93.00
2018-07-24T02:57:38.400Z,93.10
2018-07-24T03:00:07.370Z,93.10
2018-07-24T03:02:35.826Z,93.30
2018-07-24T03:05:04.202Z,93.30
2018-07-24T03:07:45.208Z,93.70
2018-07-24T03:10:13.942Z,93.50
2018-07-24T03:12:42.828Z,93.60
2018-07-24T03:15:11.351Z,93.40
2018-07-24T03:17:45.664Z,93.40
2018-07-24T03:20:14.027Z,93.40
2018-07-24T03:22:42.771Z,93.50
2018-07-24T03:37:26.797Z,93.30
2018-07-24T03:39:55.209Z,93.70
2018-07-24T03:42:23.710Z,93.50
2018-07-24T03:44:52.081Z,93.50
2018-07-24T03:47:20.510Z,93.40
2018-07-24T03:49:48.959Z,93.20
2018-07-24T03:54:45.775Z,93.20
2018-07-24T03:59:42.787Z,93.00
2018-07-24T04:02:22.974Z,92.70
2018-07-24T04:04:51.857Z,92.60
2018-07-24T04:07:20.690Z,92.50
2018-07-24T04:12:17.457Z,92.40
2018-07-24T04:14:45.915Z,92.40
2018-07-24T04:17:14.271Z,92.30
2018-07-24T04:19:42.844Z,92.20
2018-07-24T04:22:11.364Z,92.30
2018-07-24T04:24:44.235Z,92.30
2018-07-24T04:27:12.993Z,92.40
2018-07-24T04:29:41.461Z,92.40
2018-07-24T04:34:38.060Z,92.40
2018-07-24T04:37:10.595Z,92.60
2018-07-24T04:39:38.945Z,92.70
2018-07-24T04:42:07.533Z,92.60
2018-07-24T04:44:36.028Z,92.50
2018-07-24T04:47:04.390Z,92.40
2018-07-24T04:49:32.910Z,92.20
2018-07-24T05:05:01.381Z,92.20
2018-07-24T05:07:35.091Z,91.40
2018-07-24T05:10:03.785Z,91.20
2018-07-24T05:12:32.206Z,91.00
2018-07-24T05:15:05.389Z,90.70
2018-07-24T05:20:13.469Z,90.40
2018-07-24T05:22:41.899Z,90.60
2018-07-24T05:25:10.316Z,90.60
2018-07-24T05:27:42.115Z,90.60
2018-07-24T05:30:10.501Z,90.50
2018-07-24T05:32:39.192Z,90.50
2018-07-24T05:35:07.817Z,90.40
2018-07-24T05:37:36.240Z,90.10
2018-07-24T05:40:04.803Z,89.60
2018-07-24T05:42:37.888Z,89.80
2018-07-24T05:45:06.344Z,89.20
2018-07-24T05:47:35.154Z,89.30
2018-07-24T05:50:03.530Z,89.10
2018-07-24T05:52:32.052Z,88.30
2018-07-24T05:55:00.465Z,88.00
2018-07-24T05:57:28.979Z,87.60
2018-07-24T05:59:57.352Z,86.80
2018-07-24T06:02:26.169Z,87.40
2018-07-24T06:04:55.183Z,87.00
2018-07-24T06:07:23.546Z,86.60
2018-07-24T06:09:52.074Z,86.30
2018-07-24T06:12:21.375Z,86.40
2018-07-24T06:14:49.836Z,85.90
2018-07-24T06:17:22.149Z,85.60
2018-07-24T06:19:50.865Z,84.90
2018-07-24T06:22:19.311Z,84.80
2018-07-24T06:24:47.906Z,84.00
2018-07-24T06:27:16.276Z,83.80
2018-07-24T06:29:44.673Z,84.00
2018-07-24T06:32:13.063Z,83.80
2018-07-24T06:34:41.476Z,83.80
2018-07-24T06:37:10.198Z,83.50
2018-07-24T06:39:39.404Z,83.00
2018-07-24T06:42:08.483Z,82.90
2018-07-24T06:44:37.029Z,81.90
2018-07-24T06:47:05.595Z,81.70
2018-07-24T06:49:33.948Z,80.40
2018-07-24T06:52:02.353Z,80.80
2018-07-24T06:54:31.262Z,79.40
2018-07-24T06:56:59.658Z,78.90
2018-07-24T06:59:38.078Z,77.70
2018-07-24T07:02:06.596Z,76.30
2018-07-24T07:04:35.231Z,76.00
2018-07-24T07:09:32.047Z,75.00
2018-07-24T07:12:00.395Z,75.50
2018-07-24T07:14:28.806Z,75.30
2018-07-24T07:16:57.185Z,74.50
2018-07-24T07:19:35.981Z,74.20
2018-07-24T07:22:04.446Z,74.10
2018-07-24T07:24:40.590Z,74.00
2018-07-24T07:27:08.970Z,75.70
2018-07-24T07:29:37.450Z,75.70
2018-07-24T07:32:06.225Z,73.20
2018-07-24T07:34:34.650Z,74.80
2018-07-24T07:37:03.046Z,74.60
2018-07-24T07:39:31.428Z,73.00
2018-07-24T07:41:59.817Z,74.30
2018-07-24T07:44:28.415Z,73.00
2018-07-24T07:46:56.920Z,72.90
2018-07-24T07:49:25.329Z,73.20
2018-07-24T07:51:53.896Z,74.30
2018-07-24T07:54:22.264Z,72.00
2018-07-24T07:56:50.654Z,71.10
2018-07-24T07:59:19.043Z,70.30
2018-07-24T08:01:47.408Z,70.10
2018-07-24T08:04:16.003Z,71.10
2018-07-24T08:06:44.607Z,71.10
2018-07-24T08:09:13.074Z,69.50
2018-07-24T08:11:41.499Z,68.60
2018-07-24T08:14:10.171Z,68.80
2018-07-24T08:16:39.074Z,69.40
2018-07-24T08:19:07.507Z,69.30
2018-07-24T08:21:35.887Z,68.30
2018-07-24T08:24:04.270Z,68.30
2018-07-24T08:26:32.687Z,67.20
2018-07-24T08:29:01.096Z,65.90
2018-07-24T08:31:29.504Z,65.50
2018-07-24T08:33:59.442Z,66.60
2018-07-24T08:36:27.864Z,66.80
2018-07-24T08:38:56.266Z,65.30
2018-07-24T08:41:24.622Z,65.00
2018-07-24T08:43:52.991Z,64.20
2018-07-24T08:46:21.610Z,64.30
2018-07-24T08:48:50.155Z,64.50
2018-07-24T08:51:18.579Z,63.10
2018-07-24T08:53:47.310Z,62.40
2018-07-24T08:56:15.661Z,61.60
2018-07-24T08:58:44.273Z,61.60
2018-07-24T09:01:12.914Z,62.60
2018-07-24T09:03:41.649Z,62.40
2018-07-24T09:06:10.149Z,66.40
2018-07-24T09:08:38.479Z,65.20
2018-07-24T09:11:07.942Z,64.40
2018-07-24T09:13:36.589Z,60.00
2018-07-24T09:16:05.248Z,64.50
2018-07-24T09:18:34.188Z,62.10
2018-07-24T09:21:04.960Z,61.70
2018-07-24T09:23:33.716Z,60.10
2018-07-24T09:26:02.349Z,61.40
2018-07-24T09:28:30.940Z,58.90
2018-07-24T09:30:59.307Z,59.30
2018-07-24T09:33:27.936Z,59.20
2018-07-24T09:35:56.879Z,58.60
2018-07-24T09:38:25.291Z,58.80
2018-07-24T09:40:54.858Z,58.70
2018-07-24T09:43:23.497Z,58.80
2018-07-24T09:45:52.415Z,58.90
2018-07-24T09:48:22.511Z,59.40
2018-07-24T09:50:51.458Z,57.90
2018-07-24T09:53:20.121Z,57.20
2018-07-24T09:55:49.005Z,57.60
2018-07-24T09:58:17.677Z,58.00
2018-07-24T10:00:51.863Z,57.10
2018-07-24T10:03:21.719Z,58.60
2018-07-24T10:05:50.692Z,57.60
2018-07-24T10:08:19.337Z,57.60
2018-07-24T10:10:48.235Z,57.40
2018-07-24T10:13:17.460Z,58.50
2018-07-24T10:15:46.172Z,57.80
2018-07-24T10:18:15.111Z,57.10
2018-07-24T10:20:43.984Z,57.10
2018-07-24T10:23:12.619Z,57.50
2018-07-24T10:25:41.239Z,58.70
2018-07-24T10:28:10.169Z,57.80
2018-07-24T10:30:38.640Z,57.60
2018-07-24T10:33:08.030Z,57.20
2018-07-24T10:35:38.024Z,57.30
2018-07-24T10:38:06.686Z,57.60
2018-07-24T10:40:35.150Z,56.50
2018-07-24T10:43:04.096Z,57.50
2018-07-24T10:45:32.675Z,56.80
2018-07-24T10:48:01.685Z,57.90
2018-07-24T10:50:30.536Z,57.20
2018-07-24T10:52:59.171Z,55.40
2018-07-24T10:55:28.119Z,55.50
2018-07-24T10:57:57.127Z,55.70
2018-07-24T11:00:26.035Z,55.60
2018-07-24T11:02:55.038Z,54.70
2018-07-24T11:05:23.724Z,54.00
2018-07-24T11:07:52.535Z,53.90
2018-07-24T11:10:21.318Z,54.30
2018-07-24T11:12:50.138Z,54.10
2018-07-24T11:15:19.048Z,55.50
2018-07-24T11:17:48.078Z,54.00
2018-07-24T11:20:16.703Z,52.90
2018-07-24T11:22:45.798Z,53.80
2018-07-24T11:25:14.582Z,51.30
2018-07-24T11:27:43.213Z,51.60
2018-07-24T11:30:12.307Z,51.10
2018-07-24T11:32:41.264Z,50.90
2018-07-24T11:35:10.290Z,51.30
2018-07-24T11:37:39.230Z,49.20
2018-07-24T11:40:09.115Z,50.50
2018-07-24T11:42:37.491Z,49.50
2018-07-24T11:45:06.793Z,49.00
2018-07-24T11:47:35.470Z,49.00
2018-07-24T11:52:32.520Z,48.30
2018-07-24T11:55:01.217Z,47.30
2018-07-24T11:57:30.150Z,46.50
2018-07-24T11:59:59.110Z,47.10
2018-07-24T12:02:27.796Z,47.00
2018-07-24T12:04:56.434Z,47.50
2018-07-24T12:07:25.170Z,46.60
2018-07-24T12:09:54.128Z,46.70
2018-07-24T12:12:22.517Z,45.60
2018-07-24T12:14:51.589Z,45.80
2018-07-24T12:17:20.429Z,43.30
2018-07-24T12:19:49.081Z,44.30
2018-07-24T12:22:17.737Z,43.30
2018-07-24T12:24:46.413Z,42.70
2018-07-24T12:27:15.463Z,43.20
2018-07-24T12:29:44.439Z,42.80
2018-07-24T12:32:13.521Z,43.40
2018-07-24T12:34:42.294Z,42.50
2018-07-24T12:37:11.918Z,42.00
2018-07-24T12:39:41.252Z,42.40
2018-07-24T12:42:10.267Z,41.50
2018-07-24T12:44:39.397Z,40.50
2018-07-24T12:47:08.537Z,40.20
2018-07-24T12:49:37.229Z,39.60
2018-07-24T12:52:06.448Z,40.30
2018-07-24T12:54:35.102Z,41.00
2018-07-24T12:57:04.125Z,40.50
2018-07-24T12:59:32.885Z,40.60
2018-07-24T13:02:02.018Z,38.60
2018-07-24T13:04:30.688Z,39.80
2018-07-24T13:06:59.468Z,38.90
2018-07-24T13:09:27.965Z,38.40
2018-07-24T13:11:56.969Z,38.10
2018-07-24T13:14:25.707Z,38.60
2018-07-24T13:16:54.415Z,37.90
2018-07-24T13:19:23.058Z,37.00
2018-07-24T13:21:51.795Z,36.80
2018-07-24T13:24:21.669Z,34.60
2018-07-24T13:26:50.593Z,36.30
2018-07-24T13:29:19.287Z,35.90
2018-07-24T13:31:48.395Z,35.70
2018-07-24T13:34:17.327Z,34.00
2018-07-24T13:36:46.270Z,34.20
2018-07-24T13:39:15.252Z,34.10
2018-07-24T13:41:43.937Z,34.00
2018-07-24T13:44:12.672Z,33.60
2018-07-24T13:46:41.369Z,35.10
2018-07-24T13:49:10.618Z,33.90
2018-07-24T13:51:39.094Z,32.70
2018-07-24T13:54:08.052Z,31.20
2018-07-24T13:56:36.765Z,32.10
2018-07-24T13:59:05.369Z,32.00
2018-07-24T14:01:34.387Z,32.20
2018-07-24T14:04:03.356Z,31.90
2018-07-24T14:06:34.046Z,31.80
2018-07-24T14:09:03.130Z,31.30
2018-07-24T14:11:31.722Z,30.60
2018-07-24T14:14:00.587Z,29.90
2018-07-24T14:16:29.586Z,30.90
2018-07-24T14:18:58.267Z,30.20
2018-07-24T14:21:26.711Z,30.60
2018-07-24T14:23:55.679Z,30.00
2018-07-24T14:26:24.370Z,30.20
2018-07-24T14:28:53.413Z,29.30
2018-07-24T14:31:22.358Z,29.80
2018-07-24T14:33:51.266Z,30.80
2018-07-24T14:36:20.200Z,30.00
2018-07-24T14:38:49.115Z,29.70
2018-07-24T14:41:17.843Z,28.70
2018-07-24T14:43:46.583Z,28.80
2018-07-24T14:46:15.512Z,29.00
2018-07-24T14:48:44.328Z,29.40
2018-07-24T14:51:13.235Z,28.60
2018-07-24T14:53:41.900Z,28.30
2018-07-24T14:56:10.551Z,28.80
2018-07-24T14:58:39.226Z,29.00
2018-07-24T15:01:08.392Z,29.70
2018-07-24T15:03:37.182Z,30.60
2018-07-24T15:06:06.340Z,29.80
2018-07-24T15:08:35.398Z,29.80
2018-07-24T15:11:04.342Z,29.40
2018-07-24T15:13:33.096Z,29.40
2018-07-24T15:16:01.793Z,29.60
2018-07-24T15:18:30.232Z,30.00
2018-07-24T15:20:59.197Z,29.80
2018-07-24T15:23:27.875Z,30.60
2018-07-24T15:25:56.533Z,31.20
2018-07-24T15:28:25.260Z,31.50
2018-07-24T15:30:54.415Z,31.50
2018-07-24T15:33:22.978Z,32.80
2018-07-24T15:35:52.002Z,33.40
2018-07-24T15:38:20.913Z,33.30
2018-07-24T15:40:49.551Z,34.20
2018-07-24T15:43:18.189Z,34.60
2018-07-24T15:45:46.837Z,34.10
2018-07-24T15:48:15.826Z,34.30
2018-07-24T15:50:44.493Z,34.30
2018-07-24T15:53:13.422Z,34.40
2018-07-24T15:55:42.679Z,34.70
2018-07-24T15:58:11.390Z,36.20
2018-07-24T16:00:40.429Z,36.20
2018-07-24T16:03:09.359Z,36.70
2018-07-24T16:05:38.281Z,37.20
2018-07-24T16:08:06.927Z,37.80
2018-07-24T16:10:35.575Z,37.80
2018-07-24T16:13:04.440Z,37.80
2018-07-24T16:15:32.982Z,39.30
2018-07-24T16:18:02.979Z,39.40
2018-07-24T16:20:31.973Z,39.00
2018-07-24T16:23:00.961Z,37.80
2018-07-24T16:25:30.021Z,39.30
2018-07-24T16:27:58.956Z,37.50
2018-07-24T16:30:28.451Z,37.90
2018-07-24T16:32:58.217Z,39.30
2018-07-24T16:35:27.332Z,39.60
2018-07-24T16:37:56.144Z,39.60
2018-07-24T16:40:25.210Z,39.60
2018-07-24T16:42:54.105Z,39.90
2018-07-24T16:45:23.001Z,40.20
2018-07-24T16:47:52.272Z,41.30
2018-07-24T16:50:21.135Z,41.20
2018-07-24T16:52:50.173Z,41.10
2018-07-24T16:55:18.772Z,41.60
2018-07-24T16:57:47.494Z,41.50
2018-07-24T17:00:17.082Z,41.50
2018-07-24T17:02:45.795Z,41.90
2018-07-24T17:05:14.593Z,42.20
2018-07-24T17:07:43.261Z,42.80
2018-07-24T17:10:12.035Z,42.70
2018-07-24T17:12:40.407Z,43.00
2018-07-24T17:15:09.448Z,43.10
2018-07-24T17:17:38.358Z,42.70
2018-07-24T17:20:07.255Z,42.90
2018-07-24T17:22:36.058Z,43.00
2018-07-24T17:25:04.803Z,42.60
2018-07-24T17:27:33.280Z,42.10
2018-07-24T17:30:02.682Z,42.50
2018-07-24T17:32:31.448Z,42.70
2018-07-24T17:35:00.382Z,43.00
2018-07-24T17:37:29.278Z,43.20
2018-07-24T17:39:57.998Z,43.50
2018-07-24T17:42:26.469Z,43.70
2018-07-24T17:44:56.141Z,44.00
2018-07-24T17:47:24.851Z,44.20
2018-07-24T17:49:53.550Z,43.90
2018-07-24T17:52:22.626Z,44.00
2018-07-24T17:54:51.354Z,44.30
2018-07-24T17:57:20.998Z,43.10
2018-07-24T17:59:50.292Z,41.50
2018-07-24T18:02:19.753Z,41.00
2018-07-24T18:04:48.507Z,41.10
2018-07-24T18:07:17.455Z,41.20
2018-07-24T18:09:46.512Z,41.80
2018-07-24T18:12:15.638Z,42.10
2018-07-24T18:14:44.619Z,43.20
2018-07-24T18:17:13.456Z,43.80
2018-07-24T18:19:42.696Z,44.60
2018-07-24T18:22:11.632Z,45.90
2018-07-24T18:24:40.264Z,46.30
2018-07-24T18:27:09.201Z,46.70
2018-07-24T18:29:37.827Z,47.10
2018-07-24T18:32:06.481Z,47.70
2018-07-24T18:34:35.427Z,47.90
2018-07-24T18:37:04.485Z,48.30
2018-07-24T18:39:32.856Z,48.80
2018-07-24T18:42:01.896Z,49.10
2018-07-24T18:44:30.565Z,49.50
2018-07-24T18:46:59.715Z,49.80
2018-07-24T18:49:28.553Z,50.30
2018-07-24T18:51:57.480Z,50.30
2018-07-24T18:54:26.421Z,50.70
2018-07-24T18:56:55.445Z,50.90
2018-07-24T18:59:24.463Z,51.40
2018-07-24T19:01:53.411Z,51.60
2018-07-24T19:04:22.411Z,51.70
2018-07-24T19:06:51.440Z,52.20
2018-07-24T19:09:20.659Z,52.60
2018-07-24T19:11:49.615Z,52.70
2018-07-24T19:14:18.527Z,53.00
2018-07-24T19:16:47.500Z,53.40
2018-07-24T19:19:16.455Z,53.70
2018-07-24T19:21:45.430Z,53.70
2018-07-24T19:24:14.380Z,54.40
2018-07-24T19:26:43.221Z,54.30
2018-07-24T19:29:11.935Z,54.50
2018-07-24T19:31:40.656Z,54.80
2018-07-24T19:34:09.371Z,55.10
2018-07-24T19:36:37.740Z,55.40
2018-07-24T19:39:09.374Z,55.90
2018-07-24T19:41:38.078Z,56.40
2018-07-24T19:44:06.974Z,56.70
2018-07-24T19:46:35.892Z,57.30
2018-07-24T19:49:04.891Z,57.70
2018-07-24T19:51:33.463Z,58.10
2018-07-24T19:54:03.059Z,59.00
2018-07-24T19:56:32.359Z,59.20
2018-07-24T19:59:01.196Z,59.50
2018-07-24T20:01:29.959Z,59.70
2018-07-24T20:03:58.672Z,60.60
2018-07-24T20:06:29.767Z,61.10
2018-07-24T20:08:58.794Z,61.80
2018-07-24T20:11:27.772Z,62.20
2018-07-24T20:13:56.429Z,62.50
2018-07-24T20:16:25.518Z,62.60
2018-07-24T20:18:57.865Z,61.80
2018-07-24T20:21:26.531Z,61.70
2018-07-24T20:23:55.553Z,62.10
2018-07-24T20:26:24.555Z,62.20
2018-07-24T20:28:53.652Z,62.50
2018-07-24T20:31:22.732Z,62.90
2018-07-24T20:33:51.574Z,63.50
2018-07-24T20:36:20.590Z,63.60
2018-07-24T20:38:49.938Z,64.70
2018-07-24T20:41:18.928Z,65.10
2018-07-24T20:43:47.636Z,65.30
2018-07-24T20:46:16.370Z,65.80
2018-07-24T20:48:46.257Z,66.70
2018-07-24T20:51:16.062Z,66.70
2018-07-24T20:53:45.035Z,67.30
2018-07-24T20:56:13.870Z,67.40
2018-07-24T20:58:42.586Z,67.50
2018-07-24T21:01:11.620Z,68.20
2018-07-24T21:03:40.782Z,68.20
2018-07-24T21:06:09.748Z,68.30
2018-07-24T21:08:38.611Z,68.40
2018-07-24T21:11:07.648Z,68.80
2018-07-24T21:13:36.797Z,69.20
2018-07-24T21:16:05.737Z,69.50
2018-07-24T21:18:34.298Z,70.10
2018-07-24T21:21:03.410Z,70.40
2018-07-24T21:23:32.821Z,70.60
2018-07-24T21:26:02.121Z,71.40
2018-07-24T21:28:30.875Z,71.00
2018-07-24T21:30:59.627Z,70.90
2018-07-24T21:33:28.670Z,72.40
2018-07-24T21:35:57.948Z,72.00
2018-07-24T21:38:26.977Z,72.80
2018-07-24T21:40:55.690Z,73.30
2018-07-24T21:43:24.708Z,72.70
2018-07-24T21:45:53.690Z,72.30
2018-07-24T21:48:22.778Z,72.00
2018-07-24T21:50:51.913Z,73.20
2018-07-24T21:53:21.479Z,72.30
2018-07-24T21:55:50.239Z,72.20
2018-07-24T21:58:19.056Z,72.20
2018-07-24T22:00:52.933Z,72.00
2018-07-24T22:03:23.004Z,72.90
2018-07-24T22:05:52.152Z,72.70
2018-07-24T22:08:20.906Z,72.40
2018-07-24T22:10:49.576Z,73.80
2018-07-24T22:13:18.722Z,73.20
2018-07-24T22:18:20.593Z,73.50
2018-07-24T22:20:50.685Z,73.70
2018-07-24T22:23:20.469Z,73.80
2018-07-24T22:25:51.582Z,73.70
2018-07-24T22:28:21.482Z,74.10
2018-07-24T22:33:21.863Z,74.60
2018-07-24T22:35:53.721Z,74.50
2018-07-24T22:38:23.399Z,74.50
2018-07-24T22:40:53.941Z,74.90
2018-07-24T22:43:30.610Z,75.00
2018-07-24T22:46:04.575Z,75.30
2018-07-24T22:48:44.435Z,75.50
2018-07-24T22:51:14.180Z,75.50
2018-07-24T22:53:46.595Z,75.30
2018-07-24T22:56:25.116Z,75.40
2018-07-24T22:58:57.184Z,75.50
2018-07-24T23:01:31.586Z,75.40
2018-07-24T23:04:02.315Z,75.40
2018-07-24T23:06:33.684Z,75.50
2018-07-24T23:09:11.407Z,75.50
2018-07-24T23:11:40.562Z,75.30
2018-07-24T23:14:10.196Z,76.20
2018-07-24T23:16:41.057Z,76.00
2018-07-24T23:19:17.314Z,76.00
2018-07-24T23:21:48.259Z,76.20
2018-07-24T23:24:19.604Z,76.30
2018-07-24T23:26:52.706Z,76.10
2018-07-24T23:29:24.676Z,76.20
2018-07-24T23:31:55.642Z,75.50
2018-07-24T23:34:30.752Z,75.70
2018-07-24T23:37:03.681Z,74.90
2018-07-24T23:39:39.340Z,74.40
2018-07-24T23:42:08.558Z,73.90
2018-07-24T23:44:40.513Z,75.30
2018-07-24T23:47:14.332Z,75.70
2018-07-24T23:52:17.191Z,75.50
2018-07-24T23:54:48.277Z,75.70
2018-07-24T23:57:20.656Z,75.50
2018-07-24T23:59:51.978Z,75.40
